createdAt,value
2023-03-21T09:07:24.194Z,950
2023-03-21T09:10:20.898Z,948
2023-03-21T09:13:11.002Z,957
2023-03-21T09:15:59.131Z,958
2023-03-21T09:18:47.517Z,956
2023-03-21T09:21:35.524Z,948
2023-03-21T09:24:23.508Z,942
2023-03-21T09:27:11.555Z,958
2023-03-21T09:29:59.462Z,955
2023-03-21T09:32:47.399Z,968
2023-03-21T09:35:35.376Z,967
2023-03-21T09:38:23.403Z,955
2023-03-21T09:41:11.228Z,960
2023-03-21T09:43:59.175Z,955
2023-03-21T09:46:47.123Z,954
2023-03-21T09:49:34.945Z,958
2023-03-21T09:52:34.909Z,953
2023-03-21T09:55:22.714Z,960
2023-03-21T09:58:10.756Z,988
2023-03-21T10:00:58.617Z,962
2023-03-21T10:03:46.552Z,957
2023-03-21T10:06:34.911Z,960
2023-03-21T10:09:22.892Z,954
2023-03-21T10:12:10.980Z,949
2023-03-21T10:14:59.003Z,954
2023-03-21T10:17:47.010Z,940
2023-03-21T10:20:34.786Z,954
2023-03-21T10:23:22.629Z,944
2023-03-21T10:26:12.951Z,955
2023-03-21T10:29:03.084Z,950
2023-03-21T10:31:51.667Z,961
2023-03-21T10:34:39.669Z,960
2023-03-21T10:37:30.311Z,958
2023-03-21T10:40:18.376Z,955
2023-03-21T10:43:06.266Z,958
2023-03-21T10:45:54.299Z,963
2023-03-21T10:48:42.715Z,969
2023-03-21T10:51:31.261Z,967
2023-03-21T10:54:19.136Z,969
2023-03-21T10:57:06.971Z,966
2023-03-21T10:59:54.803Z,975
2023-03-21T11:02:42.821Z,972
2023-03-21T11:05:30.732Z,973
2023-03-21T11:08:18.618Z,974
2023-03-21T11:11:06.609Z,971
2023-03-21T11:13:54.518Z,979
2023-03-21T11:16:42.456Z,975
2023-03-21T11:19:30.526Z,977
2023-03-21T11:22:18.548Z,985
2023-03-21T11:25:06.483Z,981
2023-03-21T11:27:54.693Z,974
2023-03-21T11:30:42.591Z,984
2023-03-21T11:33:31.076Z,987
2023-03-21T11:36:19.061Z,984
2023-03-21T11:39:06.953Z,984
2023-03-21T11:41:55.025Z,984
2023-03-21T11:44:42.982Z,974
2023-03-21T11:47:30.862Z,978
2023-03-21T11:50:18.928Z,977
2023-03-21T11:53:06.845Z,971
2023-03-21T11:55:54.800Z,959
2023-03-21T11:58:44.044Z,960
2023-03-21T12:01:32.237Z,953
2023-03-21T12:04:20.231Z,967
2023-03-21T12:07:08.268Z,968
2023-03-21T12:09:56.210Z,954
2023-03-21T12:12:44.168Z,963
2023-03-21T12:15:31.977Z,954
2023-03-21T12:18:20.224Z,946
2023-03-21T12:21:08.049Z,951
2023-03-21T12:23:56.008Z,963
2023-03-21T12:26:43.823Z,970
2023-03-21T12:29:31.876Z,973
2023-03-21T12:32:20.011Z,976
2023-03-21T12:35:07.839Z,978
2023-03-21T12:37:57.883Z,977
2023-03-21T12:40:45.950Z,975
2023-03-21T12:43:33.844Z,977
2023-03-21T12:46:21.975Z,987
2023-03-21T12:49:10.305Z,988
2023-03-21T12:51:58.280Z,988
2023-03-21T12:54:46.049Z,980
2023-03-21T12:57:33.784Z,978
2023-03-21T13:00:21.520Z,981
2023-03-21T13:03:09.781Z,985
2023-03-21T13:06:00.412Z,979
2023-03-21T13:08:48.549Z,986
2023-03-21T13:11:47.909Z,985
2023-03-21T13:14:35.938Z,979
2023-03-21T13:17:34.533Z,979
2023-03-21T13:20:22.540Z,992
2023-03-21T13:23:10.758Z,1001
2023-03-21T13:25:58.603Z,992
2023-03-21T13:28:46.478Z,997
2023-03-21T13:31:49.002Z,1000
2023-03-21T13:34:38.980Z,994
2023-03-21T13:37:26.844Z,985
2023-03-21T13:40:17.738Z,988
2023-03-21T13:43:05.872Z,988
2023-03-21T13:45:53.811Z,991
2023-03-21T13:48:49.354Z,997
2023-03-21T13:51:40.239Z,994
2023-03-21T13:54:28.193Z,979
2023-03-21T13:57:16.381Z,992
2023-03-21T14:00:04.100Z,989
2023-03-21T14:02:51.934Z,986
2023-03-21T14:05:40.128Z,993
2023-03-21T14:08:37.022Z,990
2023-03-21T14:11:25.389Z,994
2023-03-21T14:14:23.530Z,994
2023-03-21T14:17:11.319Z,984
2023-03-21T14:19:59.018Z,985
2023-03-21T14:22:46.844Z,982
2023-03-21T14:25:40.883Z,973
2023-03-21T14:28:32.367Z,979
2023-03-21T14:31:21.273Z,971
2023-03-21T14:34:09.347Z,977
2023-03-21T14:36:58.759Z,981
2023-03-21T14:39:46.908Z,989
2023-03-21T14:42:34.692Z,982
2023-03-21T14:45:22.700Z,982
2023-03-21T14:48:11.071Z,987
2023-03-21T14:50:59.013Z,991
2023-03-21T14:53:46.855Z,985
2023-03-21T14:56:34.579Z,1001
2023-03-21T14:59:22.368Z,1001
2023-03-21T15:02:10.235Z,990
2023-03-21T15:04:58.499Z,976
2023-03-21T15:07:46.355Z,985
2023-03-21T15:10:34.262Z,979
2023-03-21T15:13:28.581Z,969
2023-03-21T15:16:16.410Z,970
2023-03-21T15:19:04.443Z,972
2023-03-21T15:21:52.541Z,970
2023-03-21T15:24:40.348Z,967
2023-03-21T15:27:28.208Z,968
2023-03-21T15:30:16.036Z,974
2023-03-21T15:33:03.908Z,960
2023-03-21T15:35:51.901Z,967
2023-03-21T15:38:40.120Z,966
2023-03-21T15:41:28.256Z,958
2023-03-21T15:44:16.107Z,953
2023-03-21T15:47:03.900Z,958
2023-03-21T15:49:51.626Z,959
2023-03-21T15:52:39.729Z,949
2023-03-21T15:55:27.925Z,941
2023-03-21T15:58:15.790Z,942
2023-03-21T16:01:03.656Z,925
2023-03-21T16:03:51.767Z,902
2023-03-21T16:06:39.651Z,892
2023-03-21T16:09:27.664Z,893
2023-03-21T16:12:18.324Z,900
2023-03-21T16:15:06.605Z,922
2023-03-21T16:17:54.359Z,927
2023-03-21T16:20:42.243Z,927
2023-03-21T16:23:30.034Z,906
2023-03-21T16:26:17.999Z,910
2023-03-21T16:29:05.872Z,903
2023-03-21T16:31:53.857Z,881
2023-03-21T16:34:41.840Z,831
2023-03-21T16:37:29.770Z,796
2023-03-21T16:40:17.592Z,828
2023-03-21T16:43:05.663Z,811
2023-03-21T16:45:53.591Z,799
2023-03-21T16:48:41.836Z,793
2023-03-21T16:51:29.668Z,777
2023-03-21T16:54:17.658Z,771
2023-03-21T16:57:05.403Z,771
2023-03-21T16:59:53.345Z,764
2023-03-21T17:02:41.151Z,754
2023-03-21T17:05:29.194Z,751
2023-03-21T17:08:17.104Z,751
2023-03-21T17:11:05.116Z,722
2023-03-21T17:13:53.004Z,707
2023-03-21T17:16:41.245Z,696
2023-03-21T17:19:30.057Z,665
2023-03-21T17:22:18.142Z,641
2023-03-21T17:25:05.926Z,608
2023-03-21T17:27:53.864Z,540
2023-03-21T17:30:41.837Z,546
2023-03-21T17:33:30.236Z,529
2023-03-21T17:36:18.232Z,480
2023-03-21T17:39:06.174Z,417
2023-03-21T17:41:53.907Z,335
2023-03-21T17:44:41.733Z,313
2023-03-21T17:47:29.569Z,297
2023-03-21T17:50:17.705Z,284
2023-03-21T17:53:05.602Z,293
2023-03-21T17:55:53.487Z,230
2023-03-21T17:58:41.162Z,200
2023-03-21T18:01:29.061Z,159
2023-03-21T18:04:17.091Z,133
2023-03-21T18:07:06.870Z,99
2023-03-21T18:10:30.747Z,49
2023-03-21T18:13:18.538Z,32
2023-03-21T18:16:06.442Z,27
2023-03-21T18:18:54.532Z,19
2023-03-21T18:21:44.618Z,22
2023-03-21T18:24:32.871Z,20
2023-03-21T18:27:20.831Z,15
2023-03-21T18:30:50.329Z,18
2023-03-21T18:33:42.678Z,12
2023-03-21T18:36:30.826Z,15
2023-03-21T18:39:20.170Z,14
2023-03-21T18:42:16.586Z,24
2023-03-21T18:46:24.048Z,7
2023-03-21T18:49:48.404Z,21
2023-03-21T18:52:46.705Z,16
2023-03-21T18:55:45.312Z,9
2023-03-21T18:59:36.593Z,20
2023-03-21T19:02:24.417Z,16
2023-03-21T19:05:38.653Z,20
2023-03-21T19:08:26.485Z,19
2023-03-21T19:11:14.319Z,10
2023-03-21T19:14:02.403Z,19
2023-03-21T19:17:26.850Z,14
2023-03-21T19:21:16.277Z,6
2023-03-21T19:24:29.681Z,13
2023-03-21T19:27:18.466Z,11
2023-03-21T19:30:14.222Z,13
2023-03-21T19:33:10.547Z,17
2023-03-21T19:36:11.099Z,17
2023-03-21T19:39:10.962Z,24
2023-03-21T19:42:14.936Z,6
2023-03-21T19:45:03.480Z,20
2023-03-21T19:47:51.456Z,14
2023-03-21T19:51:24.624Z,17
2023-03-21T19:54:14.142Z,9
2023-03-21T19:57:01.876Z,15
2023-03-21T19:59:49.703Z,18
2023-03-21T20:02:37.729Z,5
2023-03-21T20:05:25.882Z,14
2023-03-21T20:08:13.589Z,4
2023-03-21T20:12:01.532Z,11
2023-03-21T20:14:49.655Z,13
2023-03-21T20:17:46.351Z,6
2023-03-21T20:20:34.074Z,15
2023-03-21T20:23:22.063Z,8
2023-03-21T20:26:10.065Z,14
2023-03-21T20:29:19.649Z,16
2023-03-21T20:32:31.419Z,9
2023-03-21T20:35:31.274Z,14
2023-03-21T20:39:03.099Z,13
2023-03-21T20:41:51.110Z,15
2023-03-21T20:44:56.212Z,13
2023-03-21T20:47:44.916Z,8
2023-03-21T20:50:33.330Z,15
2023-03-21T20:54:00.765Z,14
2023-03-21T20:56:48.733Z,15
2023-03-21T20:59:36.585Z,15
2023-03-21T21:02:24.575Z,16
2023-03-21T21:05:25.029Z,16
2023-03-21T21:08:14.275Z,14
2023-03-21T21:11:50.088Z,15
2023-03-21T21:14:46.494Z,19
2023-03-21T21:18:01.866Z,11
2023-03-21T21:20:51.881Z,18
2023-03-21T21:23:39.819Z,14
2023-03-21T21:26:27.611Z,17
2023-03-21T21:29:15.644Z,12
2023-03-21T21:32:03.480Z,17
2023-03-21T21:34:51.568Z,11
2023-03-21T21:37:39.654Z,18
2023-03-21T21:40:27.701Z,10
2023-03-21T21:43:15.382Z,6
2023-03-21T21:46:03.429Z,15
2023-03-21T21:48:51.377Z,12
2023-03-21T21:51:39.471Z,15
2023-03-21T21:54:27.384Z,11
2023-03-21T21:57:15.320Z,18
2023-03-21T22:00:03.253Z,7
2023-03-21T22:02:51.265Z,12
2023-03-21T22:05:39.329Z,13
2023-03-21T22:08:27.319Z,13
2023-03-21T22:11:15.185Z,11
2023-03-21T22:14:03.082Z,17
2023-03-21T22:16:50.878Z,15
2023-03-21T22:19:40.280Z,17
2023-03-21T22:22:28.444Z,18
2023-03-21T22:25:16.572Z,13
2023-03-21T22:28:04.411Z,14
2023-03-21T22:30:52.256Z,13
2023-03-21T22:33:40.313Z,12
2023-03-21T22:36:28.201Z,14
2023-03-21T22:39:16.033Z,15
2023-03-21T22:42:03.860Z,19
2023-03-21T22:44:51.732Z,2
2023-03-21T22:47:39.655Z,17
2023-03-21T22:50:27.702Z,10
2023-03-21T22:53:15.449Z,13
2023-03-21T22:56:03.350Z,5
2023-03-21T22:58:51.265Z,10
2023-03-21T23:01:39.171Z,7
2023-03-21T23:04:27.284Z,12
2023-03-21T23:07:15.238Z,15
2023-03-21T23:10:03.162Z,5
2023-03-21T23:12:51.117Z,14
2023-03-21T23:15:39.089Z,11
2023-03-21T23:18:27.021Z,9
2023-03-21T23:21:14.954Z,15
2023-03-21T23:24:02.638Z,1
2023-03-21T23:26:50.431Z,22
2023-03-21T23:29:38.186Z,12
2023-03-21T23:32:26.216Z,14
2023-03-21T23:35:13.917Z,3
2023-03-21T23:38:01.850Z,10
2023-03-21T23:40:49.576Z,16
2023-03-21T23:43:37.348Z,11
2023-03-21T23:46:25.246Z,11
2023-03-21T23:49:13.298Z,9
2023-03-21T23:52:01.064Z,13
2023-03-21T23:54:49.024Z,10
2023-03-21T23:57:36.803Z,13
